createdAt,value
2023-04-01T00:00:59.565Z,99.99
2023-04-01T00:01:59.579Z,99.99
2023-04-01T00:02:59.714Z,99.99
2023-04-01T00:03:59.681Z,99.99
2023-04-01T00:04:59.532Z,99.99
2023-04-01T00:05:59.525Z,99.99
2023-04-01T00:06:59.534Z,99.99
2023-04-01T00:07:59.503Z,99.99
2023-04-01T00:08:59.481Z,99.99
2023-04-01T00:09:59.468Z,99.99
2023-04-01T00:10:59.481Z,99.99
2023-04-01T00:11:59.462Z,99.99
2023-04-01T00:12:59.445Z,99.99
2023-04-01T00:13:59.473Z,99.99
2023-04-01T00:14:59.419Z,99.99
2023-04-01T00:16:00.274Z,99.99
2023-04-01T00:16:59.417Z,99.99
2023-04-01T00:17:59.433Z,99.99
2023-04-01T00:18:59.406Z,99.99
2023-04-01T00:19:59.399Z,99.99
2023-04-01T00:20:59.357Z,99.99
2023-04-01T00:21:59.346Z,99.99
2023-04-01T00:22:59.330Z,99.99
2023-04-01T00:23:59.327Z,99.99
2023-04-01T00:24:59.324Z,99.99
2023-04-01T00:25:59.336Z,99.99
2023-04-01T00:26:59.306Z,99.99
2023-04-01T00:27:59.289Z,99.99
2023-04-01T00:28:59.268Z,99.99
2023-04-01T00:29:59.259Z,99.99
2023-04-01T00:30:59.257Z,99.99
2023-04-01T00:31:59.394Z,99.99
2023-04-01T00:32:59.251Z,99.99
2023-04-01T00:33:59.220Z,99.99
2023-04-01T00:34:59.229Z,99.99
2023-04-01T00:35:59.233Z,99.99
2023-04-01T00:36:59.192Z,99.99
2023-04-01T00:37:59.199Z,99.99
2023-04-01T00:38:59.164Z,99.99
2023-04-01T00:39:59.158Z,99.99
2023-04-01T00:40:59.145Z,99.99
2023-04-01T00:41:59.152Z,99.99
2023-04-01T00:42:59.122Z,99.99
2023-04-01T00:43:59.146Z,99.99
2023-04-01T00:44:59.103Z,99.99
2023-04-01T00:45:59.096Z,99.99
2023-04-01T00:46:59.150Z,99.99
2023-04-01T00:47:59.159Z,99.99
2023-04-01T00:48:59.059Z,99.99
2023-04-01T00:49:59.083Z,99.99
2023-04-01T00:50:59.060Z,99.99
2023-04-01T00:51:59.029Z,99.99
2023-04-01T00:52:59.019Z,99.99
2023-04-01T00:53:59.033Z,99.99
2023-04-01T00:54:58.999Z,99.99
2023-04-01T00:55:59.030Z,99.99
2023-04-01T00:56:59.007Z,99.99
2023-04-01T00:57:59.010Z,99.99
2023-04-01T00:58:58.954Z,99.99
2023-04-01T00:59:58.957Z,99.99
2023-04-01T01:00:59.076Z,99.99
2023-04-01T01:01:58.986Z,99.99
2023-04-01T01:02:58.983Z,99.99
2023-04-01T01:03:58.903Z,99.99
2023-04-01T01:04:58.890Z,99.99
2023-04-01T01:05:58.901Z,99.99
2023-04-01T01:06:58.892Z,99.99
2023-04-01T01:07:58.883Z,99.99
2023-04-01T01:08:58.846Z,99.99
2023-04-01T01:09:58.854Z,99.99
2023-04-01T01:10:58.827Z,99.99
2023-04-01T01:11:58.828Z,99.99
2023-04-01T01:12:58.807Z,99.99
2023-04-01T01:13:58.825Z,99.99
2023-04-01T01:14:58.785Z,99.99
2023-04-01T01:15:58.782Z,99.99
2023-04-01T01:16:58.850Z,99.99
2023-04-01T01:17:58.826Z,99.99
2023-04-01T01:18:58.741Z,99.99
2023-04-01T01:19:58.765Z,99.99
2023-04-01T01:20:58.726Z,99.99
2023-04-01T01:21:58.721Z,99.99
2023-04-01T01:22:58.718Z,99.99
2023-04-01T01:23:58.697Z,99.99
2023-04-01T01:24:58.680Z,99.99
2023-04-01T01:25:58.705Z,99.99
2023-04-01T01:26:58.670Z,99.99
2023-04-01T01:27:58.649Z,99.99
2023-04-01T01:28:58.647Z,99.99
2023-04-01T01:29:58.627Z,99.99
2023-04-01T01:30:58.641Z,99.99
2023-04-01T01:31:58.646Z,99.99
2023-04-01T01:32:58.645Z,99.99
2023-04-01T01:33:58.584Z,99.99
2023-04-01T01:34:58.571Z,99.99
2023-04-01T01:35:58.580Z,99.99
2023-04-01T01:36:58.597Z,99.99
2023-04-01T01:37:58.577Z,99.99
2023-04-01T01:38:58.548Z,99.99
2023-04-01T01:39:58.521Z,99.99
2023-04-01T01:40:58.505Z,99.99
2023-04-01T01:41:58.496Z,99.99
2023-04-01T01:42:58.495Z,99.99
2023-04-01T01:43:58.512Z,99.99
2023-04-01T01:44:58.461Z,99.99
2023-04-01T01:45:58.493Z,99.99
2023-04-01T01:46:58.451Z,99.99
2023-04-01T01:47:58.449Z,99.99
2023-04-01T01:48:58.429Z,99.99
2023-04-01T01:49:58.453Z,99.99
2023-04-01T01:50:58.400Z,99.99
2023-04-01T01:51:58.390Z,99.99
2023-04-01T01:52:58.379Z,99.99
2023-04-01T01:53:58.389Z,99.99
2023-04-01T01:54:58.389Z,99.99
2023-04-01T01:55:58.388Z,99.99
2023-04-01T01:56:58.369Z,99.99
2023-04-01T01:57:58.334Z,99.99
2023-04-01T01:58:58.326Z,99.99
2023-04-01T01:59:58.307Z,99.99
2023-04-01T02:00:58.306Z,99.99
2023-04-01T02:01:58.455Z,99.99
2023-04-01T02:02:58.373Z,99.99
2023-04-01T02:03:58.268Z,99.99
2023-04-01T02:04:58.301Z,99.99
2023-04-01T02:05:58.260Z,99.99
2023-04-01T02:06:58.253Z,99.99
2023-04-01T02:07:58.256Z,99.99
2023-04-01T02:08:58.217Z,99.99
2023-04-01T02:09:58.200Z,99.99
2023-04-01T02:10:58.208Z,99.99
2023-04-01T02:11:58.193Z,99.99
2023-04-01T02:12:58.180Z,99.99
2023-04-01T02:13:58.193Z,99.99
2023-04-01T02:14:58.146Z,99.99
2023-04-01T02:15:58.149Z,99.99
2023-04-01T02:16:58.136Z,99.99
2023-04-01T02:17:58.279Z,99.99
2023-04-01T02:18:58.122Z,99.99
2023-04-01T02:19:58.148Z,99.99
2023-04-01T02:20:58.086Z,99.99
2023-04-01T02:21:58.078Z,99.99
2023-04-01T02:22:58.064Z,99.99
2023-04-01T02:23:58.055Z,99.99
2023-04-01T02:24:58.071Z,99.99
2023-04-01T02:25:58.053Z,99.99
2023-04-01T02:26:58.035Z,99.99
2023-04-01T02:27:58.007Z,99.99
2023-04-01T02:28:58.004Z,99.99
2023-04-01T02:29:57.990Z,99.99
2023-04-01T02:30:58.017Z,99.99
2023-04-01T02:31:57.996Z,99.99
2023-04-01T02:32:58.038Z,99.99
2023-04-01T02:33:57.941Z,99.99
2023-04-01T02:34:57.937Z,99.99
2023-04-01T02:35:57.973Z,99.99
2023-04-01T02:36:57.921Z,99.99
2023-04-01T02:37:57.941Z,99.99
2023-04-01T02:38:57.916Z,99.99
2023-04-01T02:39:57.878Z,99.99
2023-04-01T02:40:57.870Z,99.99
2023-04-01T02:41:57.866Z,99.99
2023-04-01T02:42:57.863Z,99.99
2023-04-01T02:43:57.864Z,99.99
2023-04-01T02:44:57.842Z,99.99
2023-04-01T02:45:57.822Z,99.99
2023-04-01T02:46:57.927Z,99.99
2023-04-01T02:47:57.843Z,99.99
2023-04-01T02:48:57.783Z,99.99
2023-04-01T02:49:57.798Z,99.99
2023-04-01T02:50:57.790Z,99.99
2023-04-01T02:51:57.758Z,99.99
2023-04-01T02:52:57.742Z,99.99
2023-04-01T02:53:57.734Z,99.99
2023-04-01T02:54:57.723Z,99.99
2023-04-01T02:55:57.739Z,99.99
2023-04-01T02:56:57.774Z,99.99
2023-04-01T02:57:57.694Z,99.99
2023-04-01T02:58:57.699Z,99.99
2023-04-01T02:59:57.674Z,99.99
2023-04-01T03:00:57.704Z,99.99
2023-04-01T03:01:57.736Z,99.99
2023-04-01T03:02:57.863Z,99.99
2023-04-01T03:03:57.629Z,99.99
2023-04-01T03:04:57.617Z,99.99
2023-04-01T03:05:57.607Z,99.99
2023-04-01T03:06:57.594Z,99.99
2023-04-01T03:07:57.627Z,99.99
2023-04-01T03:08:57.591Z,99.99
2023-04-01T03:09:57.579Z,99.99
2023-04-01T03:10:59.555Z,99.99
2023-04-01T03:11:57.547Z,99.99
2023-04-01T03:12:57.548Z,99.99
2023-04-01T03:13:57.551Z,99.99
2023-04-01T03:14:57.533Z,99.99
2023-04-01T03:15:58.502Z,99.99
2023-04-01T03:16:57.561Z,99.99
2023-04-01T03:17:57.530Z,99.99
2023-04-01T03:18:57.484Z,99.99
2023-04-01T03:19:57.514Z,99.99
2023-04-01T03:20:57.447Z,99.99
2023-04-01T03:21:57.456Z,99.99
2023-04-01T03:22:57.424Z,99.99
2023-04-01T03:23:57.422Z,99.99
2023-04-01T03:24:57.464Z,99.99
2023-04-01T03:25:57.398Z,99.99
2023-04-01T03:26:57.379Z,99.99
2023-04-01T03:27:57.375Z,99.99
2023-04-01T03:28:57.372Z,99.99
2023-04-01T03:29:57.427Z,99.99
2023-04-01T03:30:57.545Z,99.99
2023-04-01T03:31:57.330Z,99.99
2023-04-01T03:32:57.387Z,99.99
2023-04-01T03:33:57.314Z,99.99
2023-04-01T03:34:57.293Z,99.99
2023-04-01T03:35:57.318Z,99.99
2023-04-01T03:36:57.317Z,99.99
2023-04-01T03:37:57.264Z,99.99
2023-04-01T03:38:57.258Z,99.99
2023-04-01T03:39:57.246Z,99.99
2023-04-01T03:40:57.231Z,99.99
2023-04-01T03:41:57.232Z,99.99
2023-04-01T03:42:57.326Z,99.99
2023-04-01T03:43:57.205Z,99.99
2023-04-01T03:44:57.188Z,99.99
2023-04-01T03:45:57.214Z,99.99
2023-04-01T03:46:57.200Z,99.99
2023-04-01T03:47:57.210Z,99.99
2023-04-01T03:48:57.169Z,99.99
2023-04-01T03:49:57.138Z,99.99
2023-04-01T03:50:57.127Z,99.99
2023-04-01T03:51:57.139Z,99.99
2023-04-01T03:52:57.106Z,99.99
2023-04-01T03:53:57.095Z,99.99
2023-04-01T03:54:57.123Z,99.99
2023-04-01T03:55:57.080Z,99.99
2023-04-01T03:56:57.075Z,99.99
2023-04-01T03:57:57.063Z,99.99
2023-04-01T03:58:57.058Z,99.99
2023-04-01T03:59:57.032Z,99.99
2023-04-01T04:00:57.071Z,99.99
2023-04-01T04:01:57.016Z,99.99
2023-04-01T04:02:57.098Z,99.99
2023-04-01T04:03:57.058Z,99.99
2023-04-01T04:04:56.990Z,99.99
2023-04-01T04:05:56.972Z,99.99
2023-04-01T04:06:56.992Z,99.99
2023-04-01T04:07:56.954Z,99.99
2023-04-01T04:08:56.933Z,99.99
2023-04-01T04:09:56.928Z,99.99
2023-04-01T04:10:56.928Z,99.99
2023-04-01T04:11:56.910Z,99.99
2023-04-01T04:12:56.961Z,99.99
2023-04-01T04:13:57.987Z,99.99
2023-04-01T04:14:56.881Z,99.99
2023-04-01T04:15:56.872Z,99.99
2023-04-01T04:16:56.860Z,99.99
2023-04-01T04:17:56.869Z,99.99
2023-04-01T04:18:56.867Z,99.99
2023-04-01T04:19:56.821Z,99.99
2023-04-01T04:20:56.822Z,99.99
2023-04-01T04:21:56.798Z,99.99
2023-04-01T04:22:56.788Z,99.99
2023-04-01T04:23:56.781Z,99.99
2023-04-01T04:24:56.803Z,99.99
2023-04-01T04:25:56.760Z,99.99
2023-04-01T04:26:56.776Z,99.99
2023-04-01T04:27:56.740Z,99.99
2023-04-01T04:28:56.741Z,99.99
2023-04-01T04:29:56.711Z,99.99
2023-04-01T04:30:56.738Z,99.99
2023-04-01T04:31:56.714Z,99.99
2023-04-01T04:32:56.739Z,99.99
2023-04-01T04:33:56.693Z,99.99
2023-04-01T04:34:56.709Z,99.99
2023-04-01T04:35:56.717Z,99.99
2023-04-01T04:36:56.655Z,99.99
2023-04-01T04:37:56.627Z,99.99
2023-04-01T04:38:56.619Z,99.99
2023-04-01T04:39:56.612Z,99.99
2023-04-01T04:40:56.614Z,99.99
2023-04-01T04:41:56.583Z,99.99
2023-04-01T04:42:56.610Z,99.99
2023-04-01T04:43:56.580Z,99.99
2023-04-01T04:44:56.554Z,99.99
2023-04-01T04:45:56.539Z,99.99
2023-04-01T04:46:58.406Z,99.99
2023-04-01T04:47:56.556Z,99.99
2023-04-01T04:48:56.556Z,99.99
2023-04-01T04:49:56.502Z,99.99
2023-04-01T04:50:56.512Z,99.99
2023-04-01T04:51:56.477Z,99.99
2023-04-01T04:52:56.467Z,99.99
2023-04-01T04:53:56.470Z,99.99
2023-04-01T04:54:56.489Z,99.99
2023-04-01T04:55:56.442Z,99.99
2023-04-01T04:56:56.487Z,99.99
2023-04-01T04:57:56.426Z,99.99
2023-04-01T04:58:56.415Z,99.99
2023-04-01T04:59:56.392Z,99.99
2023-04-01T05:00:56.435Z,99.99
2023-04-01T05:01:56.368Z,99.99
2023-04-01T05:02:56.475Z,99.99
2023-04-01T05:03:56.366Z,99.99
2023-04-01T05:04:56.343Z,99.99
2023-04-01T05:05:56.326Z,99.99
2023-04-01T05:06:56.362Z,99.99
2023-04-01T05:07:56.305Z,99.99
2023-04-01T05:08:56.295Z,99.99
2023-04-01T05:09:56.302Z,99.99
2023-04-01T05:10:56.272Z,99.99
2023-04-01T05:11:56.262Z,99.99
2023-04-01T05:12:56.281Z,99.99
2023-04-01T05:13:56.238Z,99.99
2023-04-01T05:14:56.237Z,99.99
2023-04-01T05:15:56.228Z,99.99
2023-04-01T05:16:56.233Z,99.99
2023-04-01T05:17:56.227Z,99.99
2023-04-01T05:18:56.231Z,99.99
2023-04-01T05:19:56.188Z,99.99
2023-04-01T05:20:56.188Z,99.99
2023-04-01T05:21:56.154Z,99.99
2023-04-01T05:22:56.166Z,99.99
2023-04-01T05:23:56.136Z,99.99
2023-04-01T05:24:56.177Z,99.99
2023-04-01T05:25:56.109Z,99.99
2023-04-01T05:26:57.040Z,99.99
2023-04-01T05:27:56.093Z,99.99
2023-04-01T05:28:56.090Z,99.99
2023-04-01T05:29:56.065Z,99.99
2023-04-01T05:30:56.165Z,99.99
2023-04-01T05:31:56.043Z,99.99
2023-04-01T05:32:56.105Z,99.99
2023-04-01T05:33:56.024Z,99.99
2023-04-01T05:34:56.019Z,99.99
2023-04-01T05:35:56.036Z,99.99
2023-04-01T05:36:56.036Z,99.99
2023-04-01T05:37:55.982Z,99.99
2023-04-01T05:38:56.001Z,99.99
2023-04-01T05:39:55.976Z,99.99
2023-04-01T05:40:55.951Z,99.99
2023-04-01T05:41:55.949Z,99.99
2023-04-01T05:42:55.962Z,99.99
2023-04-01T05:43:55.942Z,99.99
2023-04-01T05:44:55.910Z,99.99
2023-04-01T05:45:55.936Z,99.99
2023-04-01T05:46:55.890Z,99.99
2023-04-01T05:47:55.909Z,99.99
2023-04-01T05:48:55.915Z,99.99
2023-04-01T05:49:55.856Z,99.99
2023-04-01T05:50:55.846Z,99.99
2023-04-01T05:51:55.849Z,99.99
2023-04-01T05:52:55.825Z,99.99
2023-04-01T05:53:55.810Z,99.99
2023-04-01T05:54:55.844Z,99.99
2023-04-01T05:55:55.792Z,99.99
2023-04-01T05:56:55.798Z,99.99
2023-04-01T05:57:55.801Z,99.99
2023-04-01T05:58:55.776Z,99.99
2023-04-01T05:59:55.758Z,99.99
2023-04-01T06:01:08.122Z,99.99
2023-04-01T06:01:58.349Z,99.99
2023-04-01T06:02:55.804Z,99.99
2023-04-01T06:03:55.931Z,99.99
2023-04-01T06:04:55.753Z,98.14
2023-04-01T06:05:55.688Z,97.98
2023-04-01T06:06:55.713Z,97.92
2023-04-01T06:07:55.659Z,98.44
2023-04-01T06:08:55.656Z,99.17
2023-04-01T06:09:55.638Z,99.99
2023-04-01T06:10:55.658Z,99.38
2023-04-01T06:11:55.617Z,99.44
2023-04-01T06:12:55.657Z,99.33
2023-04-01T06:13:55.596Z,99.48
2023-04-01T06:14:55.596Z,99.59
2023-04-01T06:15:55.603Z,99.48
2023-04-01T06:16:55.586Z,99.80
2023-04-01T06:17:55.585Z,99.54
2023-04-01T06:18:55.567Z,98.39
2023-04-01T06:19:55.531Z,98.75
2023-04-01T06:20:55.527Z,98.44
2023-04-01T06:21:55.541Z,98.50
2023-04-01T06:22:55.581Z,98.55
2023-04-01T06:23:55.492Z,98.23
2023-04-01T06:24:55.508Z,98.82
2023-04-01T06:25:55.476Z,99.17
2023-04-01T06:26:55.490Z,99.69
2023-04-01T06:27:55.453Z,99.69
2023-04-01T06:28:55.512Z,99.27
2023-04-01T06:29:55.428Z,99.99
2023-04-01T06:30:55.469Z,99.99
2023-04-01T06:31:55.483Z,99.99
2023-04-01T06:32:55.465Z,99.69
2023-04-01T06:33:55.397Z,99.44
2023-04-01T06:34:55.388Z,99.69
2023-04-01T06:35:55.421Z,98.86
2023-04-01T06:36:55.420Z,98.29
2023-04-01T06:37:55.347Z,99.38
2023-04-01T06:38:55.356Z,99.02
2023-04-01T06:39:55.330Z,99.27
2023-04-01T06:40:55.316Z,99.44
2023-04-01T06:41:55.302Z,98.71
2023-04-01T06:42:55.339Z,99.13
2023-04-01T06:43:55.279Z,99.44
2023-04-01T06:44:55.283Z,99.54
2023-04-01T06:45:55.289Z,99.23
2023-04-01T06:46:55.252Z,99.65
2023-04-01T06:47:55.349Z,99.60
2023-04-01T06:48:55.258Z,99.81
2023-04-01T06:49:55.218Z,99.99
2023-04-01T06:50:55.208Z,99.91
2023-04-01T06:51:55.225Z,99.71
2023-04-01T06:52:55.187Z,99.29
2023-04-01T06:53:55.188Z,99.60
2023-04-01T06:54:55.189Z,99.29
2023-04-01T06:55:55.152Z,98.77
2023-04-01T06:56:55.151Z,98.35
2023-04-01T06:57:55.151Z,97.58
2023-04-01T06:58:55.166Z,97.31
2023-04-01T06:59:55.111Z,96.85
2023-04-01T07:00:55.143Z,97.94
2023-04-01T07:01:55.090Z,99.29
2023-04-01T07:02:55.217Z,99.55
2023-04-01T07:03:55.128Z,99.50
2023-04-01T07:04:55.058Z,99.91
2023-04-01T07:05:55.054Z,99.91
2023-04-01T07:06:55.073Z,99.99
2023-04-01T07:07:55.032Z,98.41
2023-04-01T07:08:55.016Z,97.89
2023-04-01T07:09:55.024Z,97.22
2023-04-01T07:10:55.218Z,96.59
2023-04-01T07:11:54.981Z,96.18
2023-04-01T07:12:54.983Z,96.34
2023-04-01T07:13:54.961Z,96.03
2023-04-01T07:14:54.968Z,96.66
2023-04-01T07:15:56.079Z,96.72
2023-04-01T07:16:54.953Z,98.17
2023-04-01T07:17:55.057Z,98.48
2023-04-01T07:18:54.940Z,97.75
2023-04-01T07:19:54.904Z,98.53
2023-04-01T07:20:54.879Z,99.99
2023-04-01T07:21:54.872Z,98.32
2023-04-01T07:22:54.861Z,98.84
2023-04-01T07:23:54.847Z,98.01
2023-04-01T07:24:54.985Z,98.32
2023-04-01T07:25:54.825Z,97.34
2023-04-01T07:26:54.817Z,97.13
2023-04-01T07:27:54.805Z,96.78
2023-04-01T07:28:54.823Z,96.04
2023-04-01T07:29:54.781Z,95.28
2023-04-01T07:30:54.833Z,96.12
2023-04-01T07:31:54.767Z,93.22
2023-04-01T07:32:54.781Z,93.07
2023-04-01T07:33:54.737Z,91.12
2023-04-01T07:34:54.738Z,90.95
2023-04-01T07:35:54.730Z,90.85
2023-04-01T07:36:54.780Z,89.92
2023-04-01T07:37:54.698Z,89.50
2023-04-01T07:38:54.738Z,90.17
2023-04-01T07:39:54.676Z,91.10
2023-04-01T07:40:54.674Z,91.03
2023-04-01T07:41:54.673Z,91.24
2023-04-01T07:42:54.675Z,91.14
2023-04-01T07:43:54.634Z,90.66
2023-04-01T07:44:54.631Z,89.83
2023-04-01T07:45:54.647Z,89.62
2023-04-01T07:46:54.634Z,89.52
2023-04-01T07:47:54.634Z,89.67
2023-04-01T07:48:54.609Z,89.77
2023-04-01T07:49:54.571Z,90.25
2023-04-01T07:50:54.574Z,89.73
2023-04-01T07:51:54.563Z,88.21
2023-04-01T07:52:54.540Z,90.77
2023-04-01T07:53:54.528Z,91.76
2023-04-01T07:54:54.547Z,94.05
2023-04-01T07:55:54.511Z,96.21
2023-04-01T07:56:54.531Z,95.79
2023-04-01T07:57:54.511Z,97.16
2023-04-01T07:58:54.509Z,95.81
2023-04-01T07:59:54.466Z,95.23
2023-04-01T08:00:54.470Z,95.44
2023-04-01T08:01:54.442Z,95.81
2023-04-01T08:02:54.581Z,92.82
2023-04-01T08:03:54.592Z,93.29
2023-04-01T08:04:54.495Z,91.64
2023-04-01T08:05:54.405Z,91.22
2023-04-01T08:06:54.421Z,90.75
2023-04-01T08:07:54.376Z,90.23
2023-04-01T08:08:54.379Z,91.31
2023-04-01T08:09:54.356Z,90.93
2023-04-01T08:10:54.347Z,90.62
2023-04-01T08:11:54.348Z,90.52
2023-04-01T08:12:54.363Z,90.10
2023-04-01T08:13:54.330Z,91.41
2023-04-01T08:14:54.301Z,91.33
2023-04-01T08:15:54.324Z,89.34
2023-04-01T08:16:54.740Z,86.60
2023-04-01T08:17:54.286Z,83.71
2023-04-01T08:18:54.309Z,84.15
2023-04-01T08:19:54.254Z,86.02
2023-04-01T08:20:54.236Z,87.30
2023-04-01T08:21:54.226Z,88.76
2023-04-01T08:22:54.215Z,90.31
2023-04-01T08:23:54.214Z,89.42
2023-04-01T08:24:54.236Z,88.61
2023-04-01T08:25:54.180Z,87.57
2023-04-01T08:26:54.180Z,82.75
2023-04-01T08:27:54.158Z,85.40
2023-04-01T08:28:54.148Z,87.74
2023-04-01T08:29:54.144Z,86.65
2023-04-01T08:30:54.163Z,84.27
2023-04-01T08:31:54.166Z,84.64
2023-04-01T08:32:54.169Z,82.66
2023-04-01T08:33:54.118Z,84.25
2023-04-01T08:34:54.107Z,84.25
2023-04-01T08:35:54.103Z,83.46
2023-04-01T08:36:54.078Z,83.40
2023-04-01T08:37:54.049Z,85.84
2023-04-01T08:38:54.043Z,85.47
2023-04-01T08:39:54.050Z,83.50
2023-04-01T08:40:54.017Z,84.01
2023-04-01T08:41:54.032Z,87.43
2023-04-01T08:42:54.019Z,87.49
2023-04-01T08:43:53.982Z,86.88
2023-04-01T08:44:53.975Z,85.22
2023-04-01T08:45:54.047Z,83.73
2023-04-01T08:46:53.966Z,85.80
2023-04-01T08:47:54.018Z,86.46
2023-04-01T08:48:53.949Z,85.18
2023-04-01T08:49:53.923Z,82.83
2023-04-01T08:50:53.932Z,84.15
2023-04-01T08:51:53.904Z,83.01
2023-04-01T08:52:53.895Z,82.84
2023-04-01T08:53:53.880Z,83.32
2023-04-01T08:54:53.901Z,83.39
2023-04-01T08:55:53.857Z,81.63
2023-04-01T08:56:53.874Z,80.87
2023-04-01T08:57:54.724Z,81.80
2023-04-01T08:58:53.822Z,85.31
2023-04-01T08:59:53.819Z,82.73
2023-04-01T09:00:53.819Z,81.49
2023-04-01T09:01:53.839Z,83.48
2023-04-01T09:02:53.876Z,82.54
2023-04-01T09:03:53.882Z,81.23
2023-04-01T09:04:53.757Z,80.23
2023-04-01T09:05:53.753Z,77.91
2023-04-01T09:06:53.780Z,79.66
2023-04-01T09:07:53.730Z,80.87
2023-04-01T09:08:53.718Z,80.76
2023-04-01T09:09:53.706Z,77.08
2023-04-01T09:10:53.697Z,74.77
2023-04-01T09:11:53.757Z,77.15
2023-04-01T09:12:53.692Z,76.04
2023-04-01T09:13:53.664Z,79.06
2023-04-01T09:14:53.652Z,76.25
2023-04-01T09:15:53.704Z,77.75
2023-04-01T09:16:53.627Z,78.51
2023-04-01T09:17:53.677Z,77.72
2023-04-01T09:18:53.627Z,74.53
2023-04-01T09:19:53.608Z,75.90
2023-04-01T09:20:53.586Z,71.55
2023-04-01T09:21:53.577Z,75.60
2023-04-01T09:22:53.586Z,70.51
2023-04-01T09:23:53.585Z,69.27
2023-04-01T09:24:53.571Z,72.50
2023-04-01T09:25:53.540Z,75.05
2023-04-01T09:26:53.526Z,77.80
2023-04-01T09:27:53.517Z,74.91
2023-04-01T09:28:53.507Z,71.55
2023-04-01T09:29:53.506Z,70.69
2023-04-01T09:30:53.502Z,71.51
2023-04-01T09:31:53.544Z,71.03
2023-04-01T09:32:53.498Z,69.44
2023-04-01T09:33:53.462Z,69.96
2023-04-01T09:34:54.418Z,70.27
2023-04-01T09:35:53.466Z,69.54
2023-04-01T09:36:53.434Z,72.37
2023-04-01T09:37:53.423Z,74.36
2023-04-01T09:38:53.418Z,66.94
2023-04-01T09:39:53.390Z,66.77
2023-04-01T09:40:53.401Z,67.49
2023-04-01T09:41:53.370Z,68.21
2023-04-01T09:42:53.372Z,67.24
2023-04-01T09:43:53.347Z,67.14
2023-04-01T09:44:53.332Z,66.52
2023-04-01T09:45:53.335Z,65.28
2023-04-01T09:46:53.327Z,66.52
2023-04-01T09:47:53.352Z,68.21
2023-04-01T09:48:53.317Z,69.55
2023-04-01T09:49:53.282Z,68.24
2023-04-01T09:50:53.267Z,69.48
2023-04-01T09:51:53.261Z,70.20
2023-04-01T09:52:53.255Z,68.69
2023-04-01T09:53:53.236Z,69.20
2023-04-01T09:54:53.246Z,66.42
2023-04-01T09:55:53.216Z,65.39
2023-04-01T09:56:53.218Z,66.70
2023-04-01T09:57:53.203Z,67.79
2023-04-01T09:58:53.177Z,68.07
2023-04-01T09:59:53.171Z,69.31
2023-04-01T10:00:53.166Z,71.44
2023-04-01T10:01:53.181Z,69.35
2023-04-01T10:02:53.190Z,69.21
2023-04-01T10:03:53.127Z,68.46
2023-04-01T10:04:53.115Z,65.19
2023-04-01T10:05:53.146Z,66.22
2023-04-01T10:06:53.111Z,66.46
2023-04-01T10:07:53.081Z,66.56
2023-04-01T10:08:53.191Z,70.58
2023-04-01T10:09:53.062Z,69.86
2023-04-01T10:10:53.073Z,70.17
2023-04-01T10:11:53.039Z,68.24
2023-04-01T10:12:53.037Z,71.75
2023-04-01T10:13:53.017Z,67.83
2023-04-01T10:14:53.014Z,68.93
2023-04-01T10:15:53.020Z,66.05
2023-04-01T10:16:54.383Z,67.18
2023-04-01T10:17:53.067Z,69.62
2023-04-01T10:18:52.974Z,70.97
2023-04-01T10:19:52.962Z,71.00
2023-04-01T10:20:52.960Z,67.44
2023-04-01T10:21:52.933Z,66.78
2023-04-01T10:22:52.914Z,66.20
2023-04-01T10:23:52.908Z,63.94
2023-04-01T10:24:52.920Z,64.63
2023-04-01T10:25:52.888Z,63.27
2023-04-01T10:26:52.913Z,65.91
2023-04-01T10:27:52.871Z,68.51
2023-04-01T10:28:52.848Z,64.34
2023-04-01T10:29:52.840Z,63.57
2023-04-01T10:30:52.842Z,63.29
2023-04-01T10:31:52.862Z,65.66
2023-04-01T10:32:52.868Z,63.32
2023-04-01T10:33:52.811Z,63.02
2023-04-01T10:34:52.781Z,64.94
2023-04-01T10:35:52.852Z,67.44
2023-04-01T10:36:52.770Z,60.42
2023-04-01T10:37:52.754Z,63.22
2023-04-01T10:38:52.750Z,65.08
2023-04-01T10:39:52.728Z,62.99
2023-04-01T10:40:52.714Z,62.99
2023-04-01T10:41:52.707Z,63.20
2023-04-01T10:42:52.729Z,63.20
2023-04-01T10:43:52.736Z,63.84
2023-04-01T10:44:52.674Z,64.87
2023-04-01T10:45:52.686Z,66.31
2023-04-01T10:46:52.668Z,64.07
2023-04-01T10:47:52.833Z,62.43
2023-04-01T10:48:52.645Z,61.61
2023-04-01T10:49:52.627Z,61.09
2023-04-01T10:50:52.609Z,61.63
2023-04-01T10:51:52.597Z,64.41
2023-04-01T10:52:52.619Z,64.31
2023-04-01T10:53:52.576Z,63.18
2023-04-01T10:54:52.581Z,64.00
2023-04-01T10:55:52.580Z,64.41
2023-04-01T10:56:52.612Z,64.62
2023-04-01T10:57:52.529Z,62.87
2023-04-01T10:58:52.563Z,63.21
2023-04-01T10:59:52.516Z,63.34
2023-04-01T11:00:52.562Z,65.50
2023-04-01T11:02:04.087Z,67.84
2023-04-01T11:02:53.533Z,66.40
2023-04-01T11:03:52.566Z,66.58
2023-04-01T11:04:52.496Z,66.30
2023-04-01T11:05:52.443Z,65.78
2023-04-01T11:06:52.474Z,64.99
2023-04-01T11:08:04.881Z,65.81
2023-04-01T11:08:53.412Z,64.99
2023-04-01T11:09:52.401Z,66.67
2023-04-01T11:10:52.451Z,64.78
2023-04-01T11:11:52.380Z,68.29
2023-04-01T11:12:52.392Z,68.49
2023-04-01T11:13:52.359Z,65.09
2023-04-01T11:14:52.380Z,67.46
2023-04-01T11:15:52.365Z,67.15
2023-04-01T11:16:52.340Z,66.77
2023-04-01T11:17:52.367Z,66.36
2023-04-01T11:18:52.330Z,66.46
2023-04-01T11:19:52.304Z,64.12
2023-04-01T11:20:52.281Z,66.60
2023-04-01T11:21:52.279Z,66.08
2023-04-01T11:22:52.282Z,67.76
2023-04-01T11:24:04.583Z,66.55
2023-04-01T11:24:53.271Z,69.62
2023-04-01T11:25:52.241Z,67.79
2023-04-01T11:26:52.437Z,69.93
2023-04-01T11:27:52.205Z,68.90
2023-04-01T11:28:52.195Z,70.03
2023-04-01T11:29:59.653Z,70.44
2023-04-01T11:30:53.216Z,69.44
2023-04-01T11:31:52.283Z,70.86
2023-04-01T11:32:52.208Z,71.23
2023-04-01T11:33:52.142Z,72.06
2023-04-01T11:34:52.137Z,70.03
2023-04-01T11:35:52.118Z,69.51
2023-04-01T11:36:52.161Z,69.93
2023-04-01T11:37:52.095Z,70.68
2023-04-01T11:38:52.117Z,70.47
2023-04-01T11:39:52.082Z,72.02
2023-04-01T11:40:52.066Z,70.17
2023-04-01T11:41:52.049Z,71.37
2023-04-01T11:42:52.083Z,71.26
2023-04-01T11:43:52.033Z,71.95
2023-04-01T11:44:52.018Z,71.85
2023-04-01T11:45:52.037Z,72.54
2023-04-01T11:46:52.024Z,72.81
2023-04-01T11:47:52.002Z,75.49
2023-04-01T11:48:52.008Z,76.28
2023-04-01T11:49:51.959Z,78.24
2023-04-01T11:50:51.962Z,78.24
2023-04-01T11:51:51.954Z,78.48
2023-04-01T11:52:51.933Z,80.47
2023-04-01T11:53:51.920Z,80.58
2023-04-01T11:54:51.929Z,83.09
2023-04-01T11:55:51.894Z,81.75
2023-04-01T11:56:51.919Z,82.71
2023-04-01T11:57:51.891Z,83.71
2023-04-01T11:58:51.870Z,82.98
2023-04-01T11:59:51.856Z,83.50
2023-04-01T12:00:51.862Z,84.29
2023-04-01T12:01:51.840Z,84.12
2023-04-01T12:02:51.986Z,84.16
2023-04-01T12:03:51.959Z,84.57
2023-04-01T12:04:51.846Z,84.75
2023-04-01T12:05:51.787Z,86.41
2023-04-01T12:06:51.795Z,87.27
2023-04-01T12:07:51.765Z,87.23
2023-04-01T12:08:51.768Z,87.44
2023-04-01T12:09:51.742Z,87.44
2023-04-01T12:10:51.740Z,86.82
2023-04-01T12:11:51.721Z,85.62
2023-04-01T12:13:00.649Z,86.86
2023-04-01T12:13:52.711Z,86.96
2023-04-01T12:14:51.705Z,86.65
2023-04-01T12:15:51.681Z,88.41
2023-04-01T12:16:51.757Z,87.07
2023-04-01T12:17:51.717Z,87.27
2023-04-01T12:18:51.673Z,86.86
2023-04-01T12:19:51.645Z,87.10
2023-04-01T12:20:51.626Z,87.41
2023-04-01T12:21:51.632Z,86.65
2023-04-01T12:22:51.610Z,85.35
2023-04-01T12:23:51.595Z,81.94
2023-04-01T12:24:51.600Z,81.05
2023-04-01T12:25:51.572Z,80.49
2023-04-01T12:26:51.581Z,80.66
2023-04-01T12:27:52.146Z,79.42
2023-04-01T12:28:51.550Z,77.77
2023-04-01T12:29:51.543Z,77.77
2023-04-01T12:30:51.532Z,76.12
2023-04-01T12:31:51.531Z,74.46
2023-04-01T12:32:51.534Z,74.98
2023-04-01T12:33:51.484Z,77.73
2023-04-01T12:34:51.496Z,74.84
2023-04-01T12:35:51.489Z,74.95
2023-04-01T12:36:51.621Z,75.36
2023-04-01T12:37:51.459Z,72.06
2023-04-01T12:38:51.435Z,73.71
2023-04-01T12:39:51.419Z,72.67
2023-04-01T12:40:51.416Z,73.19
2023-04-01T12:41:51.406Z,75.36
2023-04-01T12:42:51.409Z,75.74
2023-04-01T12:43:51.389Z,74.29
2023-04-01T12:44:51.371Z,71.95
2023-04-01T12:45:51.399Z,71.75
2023-04-01T12:46:51.350Z,72.06
2023-04-01T12:47:51.407Z,72.36
2023-04-01T12:48:52.946Z,71.75
2023-04-01T12:49:51.315Z,71.92
2023-04-01T12:50:51.325Z,70.17
2023-04-01T12:51:51.292Z,70.82
2023-04-01T12:52:51.285Z,70.72